Time;durP1;ratioP1;P1;durP2;ratioP2;P2;SDS_P1;SDS_P2;PMS_P1;PMS_P2;Temp;Humidity;BMP_temperature;BMP_pressure;BME280_temperature;BME280_humidity;BME280_pressure;Samples;Min_cycle;Max_cycle;Signal;HPM_P1;HPM_P2
2023/01/02 00:00:53;;;;;;;1999.90;999.90;;;;;;;6.56;100.00;95619.59;5115592;28;20241;-60
2023/01/02 00:03:19;;;;;;;1999.90;999.90;;;;;;;6.54;100.00;95611.03;5116242;28;20250;-60
2023/01/02 00:05:44;;;;;;;1999.90;999.90;;;;;;;6.47;100.00;95610.97;5115294;28;20238;-60
2023/01/02 00:08:09;;;;;;;1999.90;999.90;;;;;;;6.47;100.00;95600.13;5115554;28;20197;-63
2023/01/02 00:10:35;;;;;;;1999.90;999.90;;;;;;;6.47;100.00;95594.69;5115472;28;20327;-62
2023/01/02 00:13:00;;;;;;;1999.90;999.90;;;;;;;6.39;100.00;95587.63;5115369;28;20217;-62
2023/01/02 00:15:26;;;;;;;1999.90;999.90;;;;;;;6.34;100.00;95585.25;5115383;27;20178;-63
2023/01/02 00:17:51;;;;;;;1999.90;999.90;;;;;;;6.25;100.00;95577.41;5115326;28;20256;-62
2023/01/02 00:20:17;;;;;;;1999.90;999.90;;;;;;;6.25;100.00;95576.63;5115366;28;20257;-62
2023/01/02 00:22:42;;;;;;;1999.90;999.90;;;;;;;6.23;100.00;95571.56;5115406;28;20175;-62
2023/01/02 00:25:08;;;;;;;1999.90;999.90;;;;;;;6.22;100.00;95561.09;5115168;28;20181;-62
2023/01/02 00:27:33;;;;;;;1999.90;999.90;;;;;;;6.21;100.00;95568.47;5115288;28;20288;-60
2023/01/02 00:29:59;;;;;;;1999.90;999.90;;;;;;;6.21;100.00;95559.53;5114974;28;20181;-60
2023/01/02 00:32:24;;;;;;;1999.90;999.90;;;;;;;6.18;100.00;95557.56;5115083;28;20163;-61
2023/01/02 00:34:49;;;;;;;1999.90;999.90;;;;;;;6.13;100.00;95560.63;5115118;28;20170;-60
2023/01/02 00:37:15;;;;;;;1999.90;999.90;;;;;;;6.13;100.00;95557.91;5115123;28;20174;-61
2023/01/02 00:39:40;;;;;;;1999.90;999.90;;;;;;;6.13;100.00;95564.09;5114943;28;20175;-60
2023/01/02 00:42:05;;;;;;;1999.90;999.90;;;;;;;6.12;100.00;95556.34;5114890;28;20171;-60
2023/01/02 00:44:31;;;;;;;1999.90;999.90;;;;;;;6.12;100.00;95564.50;5115505;28;20182;-61
2023/01/02 00:46:56;;;;;;;1999.90;999.90;;;;;;;6.11;100.00;95549.34;5115408;28;20193;-62
2023/01/02 00:49:21;;;;;;;1999.90;999.90;;;;;;;6.12;100.00;95556.34;5113810;28;20200;-62
2023/01/02 00:51:47;;;;;;;1999.90;999.90;;;;;;;6.09;100.00;95546.25;5115622;28;20177;-61
2023/01/02 00:54:12;;;;;;;1999.90;999.90;;;;;;;6.05;100.00;95546.19;5115363;28;20173;-62
2023/01/02 00:56:37;;;;;;;1999.90;999.90;;;;;;;6.06;100.00;95530.72;5115052;28;20179;-61
2023/01/02 00:59:03;;;;;;;1999.90;999.90;;;;;;;6.02;100.00;95535.31;5115167;28;20170;-61
2023/01/02 01:01:28;;;;;;;1999.90;999.90;;;;;;;6.02;100.00;95527.97;5114623;28;20196;-60
2023/01/02 01:03:53;;;;;;;1999.90;999.90;;;;;;;6.04;100.00;95533.00;5115051;28;20193;-61
2023/01/02 01:06:20;;;;;;;1999.90;999.90;;;;;;;6.02;100.00;95529.91;5115032;28;20200;-61
2023/01/02 01:08:46;;;;;;;1999.90;999.90;;;;;;;6.02;100.00;95514.41;5115006;28;20239;-61
2023/01/02 01:11:14;;;;;;;1999.90;999.90;;;;;;;6.01;100.00;95512.09;5114543;28;20204;-61
2023/01/02 01:13:40;;;;;;;1999.90;999.90;;;;;;;6.00;100.00;95521.34;5114080;28;20213;-61
2023/01/02 01:16:14;;;;;;;1999.90;999.90;;;;;;;5.94;100.00;95517.44;5114992;28;20250;-61
2023/01/02 01:18:39;;;;;;;1999.90;999.90;;;;;;;5.95;100.00;95524.41;5114356;28;20183;-66
2023/01/02 01:21:16;;;;;;;1999.90;999.90;;;;;;;5.91;100.00;95513.50;5114946;28;20175;-60
2023/01/02 01:23:42;;;;;;;1999.90;999.90;;;;;;;5.77;100.00;95512.53;5114938;28;20257;-71
2023/01/02 01:26:12;;;;;;;1999.90;999.90;;;;;;;5.83;100.00;95505.69;5113848;28;20180;-71
2023/01/02 01:28:38;;;;;;;1999.90;999.90;;;;;;;5.83;100.00;95505.69;5113526;28;20289;-72
2023/01/02 01:31:09;;;;;;;1999.90;999.90;;;;;;;5.86;100.00;95515.75;5114319;28;20175;-72
2023/01/02 01:33:36;;;;;;;1999.90;999.90;;;;;;;5.88;100.00;95502.63;5114557;28;20181;-73
2023/01/02 01:36:03;;;;;;;1999.90;999.90;;;;;;;5.85;100.00;95503.38;5114123;28;20171;-71
2023/01/02 01:38:30;;;;;;;1999.90;999.90;;;;;;;5.86;100.00;95504.94;5114103;28;20173;-61
2023/01/02 01:40:55;;;;;;;1999.90;999.90;;;;;;;5.82;100.00;95496.78;5114591;28;20229;-72
2023/01/02 01:43:50;;;;;;;1999.90;999.90;;;;;;;5.75;100.00;95499.38;5114505;28;20165;-71
2023/01/02 01:46:34;;;;;;;1999.90;999.90;;;;;;;5.77;100.00;95485.44;5114528;28;20443;-71
2023/01/02 01:49:32;;;;;;;1999.90;999.90;;;;;;;5.79;100.00;95472.34;5114567;28;20224;-72
2023/01/02 01:52:05;;;;;;;1999.90;999.90;;;;;;;5.79;100.00;95472.34;5091243;28;20185;-74
2023/01/02 01:54:34;;;;;;;1999.90;999.90;;;;;;;5.87;100.00;95482.88;5113553;28;20176;-74
2023/01/02 01:57:07;;;;;;;1999.90;999.90;;;;;;;5.76;100.00;95473.81;5114154;28;20179;-62
2023/01/02 01:59:33;;;;;;;1999.90;999.90;;;;;;;5.79;100.00;95473.09;5114925;28;20185;-62
2023/01/02 02:01:59;;;;;;;1999.90;999.90;;;;;;;5.83;100.00;95484.00;5118601;28;20227;-62
2023/01/02 02:04:25;;;;;;;1999.90;999.90;;;;;;;5.80;100.00;95479.31;5117935;28;20193;-61
2023/01/02 02:06:51;;;;;;;1999.90;999.90;;;;;;;5.80;100.00;95479.31;5117776;28;20172;-61
2023/01/02 02:09:22;;;;;;;1999.90;999.90;;;;;;;5.76;100.00;95478.50;5117613;28;20178;-62
2023/01/02 02:11:48;;;;;;;1999.90;999.90;;;;;;;5.73;100.00;95484.63;5118886;28;20192;-62
2023/01/02 02:14:13;;;;;;;1999.90;999.90;;;;;;;5.77;100.00;95469.19;5117368;28;20219;-62
2023/01/02 02:17:18;;;;;;;1999.90;999.90;;;;;;;5.75;100.00;95463.34;5117472;28;20295;-66
2023/01/02 02:20:20;;;;;;;1999.90;999.90;;;;;;;5.65;100.00;95474.88;5117847;28;20194;-62
2023/01/02 02:23:13;;;;;;;1999.90;999.90;;;;;;;5.56;100.00;95468.94;5118013;28;20202;-62
2023/01/02 02:25:52;;;;;;;1999.90;999.90;;;;;;;5.48;100.00;95467.31;5118209;28;20205;-62
2023/01/02 02:28:39;;;;;;;1999.90;999.90;;;;;;;5.47;100.00;95455.69;5118021;28;20204;-62
2023/01/02 02:31:29;;;;;;;1999.90;999.90;;;;;;;5.45;100.00;95451.78;5118045;28;20198;-61
2023/01/02 02:34:06;;;;;;;1999.90;999.90;;;;;;;5.38;100.00;95443.59;5117445;28;20176;-63
2023/01/02 02:36:45;;;;;;;1999.90;999.90;;;;;;;5.39;100.00;123790.72;5117883;28;20164;-62
2023/01/02 02:39:25;;;;;;;1999.90;999.90;;;;;;;5.36;100.00;95426.94;5117821;28;20172;-62
2023/01/02 02:42:42;;;;;;;1999.90;999.90;;;;;;;5.33;100.00;95422.25;5118000;28;20217;-62
2023/01/02 02:45:18;;;;;;;1999.90;999.90;;;;;;;5.23;100.00;95421.00;5099961;28;20189;-62
2023/01/02 02:47:54;;;;;;;1999.90;999.90;;;;;;;5.15;100.00;95411.22;5117643;28;20219;-62
2023/01/02 02:50:32;;;;;;;1999.90;999.90;;;;;;;5.13;100.00;95401.91;5117781;28;20168;-62
2023/01/02 02:53:08;;;;;;;1999.90;999.90;;;;;;;5.10;100.00;95408.81;5117814;28;20169;-62
2023/01/02 02:55:56;;;;;;;1999.90;999.90;;;;;;;5.05;100.00;95389.44;5117610;28;20166;-61
2023/01/02 02:58:24;;;;;;;1999.90;999.90;;;;;;;5.01;100.00;95372.38;5116917;28;20177;-62
2023/01/02 03:00:49;;;;;;;1999.90;999.90;;;;;;;4.99;100.00;95369.28;5116686;28;20200;-61
2023/01/02 03:03:22;;;;;;;1999.90;999.90;;;;;;;4.96;100.00;95361.88;5117063;28;20169;-63
2023/01/02 03:06:15;;;;;;;1999.90;999.90;;;;;;;4.92;100.00;95353.72;5117163;28;20313;-61
2023/01/02 03:08:49;;;;;;;1999.90;999.90;;;;;;;4.91;100.00;95343.25;5116709;28;20252;-61
2023/01/02 03:11:15;;;;;;;1999.90;999.90;;;;;;;4.85;100.00;95347.44;5116438;28;20264;-60
2023/01/02 03:13:52;;;;;;;1999.90;999.90;;;;;;;4.78;100.00;95329.22;5116826;28;20214;-62
2023/01/02 03:16:27;;;;;;;1999.90;999.90;;;;;;;4.73;100.00;95328.75;5117165;28;20175;-62
2023/01/02 03:19:00;;;;;;;1999.90;999.90;;;;;;;4.75;100.00;95310.22;5116639;28;20224;-62
2023/01/02 03:21:33;;;;;;;1999.90;999.90;;;;;;;4.70;100.00;95297.03;5116745;28;20172;-62
2023/01/02 03:24:04;;;;;;;1999.90;999.90;;;;;;;4.69;100.00;95290.03;5117176;28;20173;-62
2023/01/02 03:26:32;;;;;;;1999.90;999.90;;;;;;;4.70;100.00;95275.41;5116993;28;20164;-62
2023/01/02 03:29:04;;;;;;;1999.90;999.90;;;;;;;4.70;100.00;95270.00;5116448;28;20208;-78
2023/01/02 03:31:33;;;;;;;1999.90;999.90;;;;;;;4.71;100.00;95260.72;5117521;28;20156;-61
2023/01/02 03:34:05;;;;;;;1999.90;999.90;;;;;;;4.68;100.00;95250.63;5116245;28;20184;-61
2023/01/02 03:36:35;;;;;;;1999.90;999.90;;;;;;;4.61;100.00;95243.22;5116585;28;20183;-61
2023/01/02 03:39:06;;;;;;;1999.90;999.90;;;;;;;4.56;100.00;95231.97;5116034;28;20263;-61
2023/01/02 03:41:36;;;;;;;1999.90;999.90;;;;;;;4.50;100.00;95217.19;5116924;28;20171;-61
2023/01/02 03:44:05;;;;;;;1999.90;999.90;;;;;;;4.48;100.00;95198.66;5116131;28;20168;-61
2023/01/02 03:46:43;;;;;;;1999.90;999.90;;;;;;;4.49;100.00;95191.31;5116007;28;20178;-60
2023/01/02 03:49:17;;;;;;;1999.90;999.90;;;;;;;4.49;100.00;95169.69;5115890;28;20172;-60
2023/01/02 03:51:42;;;;;;;1999.90;999.90;;;;;;;4.52;100.00;95160.84;5115788;28;20163;-62
2023/01/02 03:54:09;;;;;;;1999.90;999.90;;;;;;;4.60;100.00;95141.66;5115973;28;20580;-61
2023/01/02 03:56:53;;;;;;;1999.90;999.90;;;;;;;4.64;100.00;95130.84;5115927;28;20201;-62
2023/01/02 03:59:32;;;;;;;1999.90;999.90;;;;;;;4.66;100.00;95117.75;5115972;28;20268;-62
2023/01/02 04:02:15;;;;;;;1999.90;999.90;;;;;;;4.68;100.00;95137.06;5115512;28;20184;-61
2023/01/02 04:04:46;;;;;;;1999.90;999.90;;;;;;;4.66;100.00;95139.38;5115498;28;20203;-59
2023/01/02 04:07:19;;;;;;;1999.90;999.90;;;;;;;4.66;100.00;95128.56;5115604;28;20296;-61
2023/01/02 04:09:46;;;;;;;1999.90;999.90;;;;;;;4.69;100.00;95138.59;5115710;28;20268;-61
2023/01/02 04:12:16;;;;;;;1999.90;999.90;;;;;;;4.70;100.00;95159.13;5115659;28;20170;-61
2023/01/02 04:14:49;;;;;;;1999.90;999.90;;;;;;;4.68;100.00;95159.50;5115618;28;20185;-61
2023/01/02 04:17:18;;;;;;;1999.90;999.90;;;;;;;4.68;100.00;95153.28;5116103;28;20180;-61
2023/01/02 04:19:50;;;;;;;1999.90;999.90;;;;;;;4.73;100.00;95164.53;5115586;28;20172;-61
2023/01/02 04:22:22;;;;;;;1999.90;999.90;;;;;;;4.77;100.00;95168.06;5115428;28;20179;-60
2023/01/02 04:24:54;;;;;;;1999.90;999.90;;;;;;;4.79;100.00;95173.09;5115746;28;20204;-69
2023/01/02 04:27:26;;;;;;;1999.90;999.90;;;;;;;4.76;100.00;95176.53;5115694;28;20266;-61
2023/01/02 04:29:52;;;;;;;1999.90;999.90;;;;;;;4.76;100.00;95177.34;5115982;28;20172;-61
2023/01/02 04:32:26;;;;;;;1999.90;999.90;;;;;;;4.74;100.00;95189.69;5115190;28;20187;-62
2023/01/02 04:34:53;;;;;;;1999.90;999.90;;;;;;;4.73;100.00;95191.59;5115711;28;20173;-61
2023/01/02 04:37:37;;;;;;;1999.90;999.90;;;;;;;4.70;100.00;95195.03;5114687;28;20172;-61
2023/01/02 04:40:14;;;;;;;1999.90;999.90;;;;;;;4.68;100.00;95199.25;5115334;28;20207;-61
2023/01/02 04:42:39;;;;;;;1999.90;999.90;;;;;;;4.67;100.00;95200.41;5115739;28;20272;-73
2023/01/02 04:45:05;;;;;;;1999.90;999.90;;;;;;;4.66;100.00;95196.91;5115243;28;20219;-61
2023/01/02 04:47:30;;;;;;;1999.90;999.90;;;;;;;4.69;100.00;95201.59;5115262;28;20240;-61
2023/01/02 04:49:55;;;;;;;1999.90;999.90;;;;;;;4.70;100.00;95205.09;5115499;28;20249;-61
2023/01/02 04:52:21;;;;;;;1999.90;999.90;;;;;;;4.69;100.00;95207.00;5115351;28;20333;-61
2023/01/02 04:54:46;;;;;;;1999.90;999.90;;;;;;;4.71;100.00;95217.44;5114748;28;20256;-61
2023/01/02 04:57:11;;;;;;;1999.90;999.90;;;;;;;4.72;100.00;95219.00;5114618;28;20195;-61
2023/01/02 04:59:37;;;;;;;1999.90;999.90;;;;;;;4.70;100.00;95238.28;5115786;28;20176;-61
2023/01/02 05:02:02;;;;;;;1999.90;999.90;;;;;;;4.69;100.00;95244.06;5114214;28;20175;-61
2023/01/02 05:04:27;;;;;;;1999.90;999.90;;;;;;;4.64;100.00;95256.03;5114493;28;20253;-77
2023/01/02 05:06:53;;;;;;;1999.90;999.90;;;;;;;4.63;100.00;95251.72;5114546;28;20176;-77
2023/01/02 05:09:18;;;;;;;1999.90;999.90;;;;;;;4.64;100.00;95249.81;5115552;28;20183;-75
2023/01/02 05:11:43;;;;;;;1999.90;999.90;;;;;;;4.63;100.00;95253.69;5114504;28;20191;-75
2023/01/02 05:14:09;;;;;;;1999.90;999.90;;;;;;;4.65;100.00;95256.78;5114531;28;20299;-74
2023/01/02 05:16:34;;;;;;;1999.90;999.90;;;;;;;4.65;100.00;95262.19;5114694;28;20203;-75
2023/01/02 05:18:59;;;;;;;1999.90;999.90;;;;;;;4.64;100.00;95255.22;5114628;28;20222;-63
2023/01/02 05:24:19;;;;;;;1999.90;999.90;;;;;;;4.62;100.00;95230.50;5077838;28;20251;-58
2023/01/02 05:26:45;;;;;;;1999.90;999.90;;;;;;;4.59;100.00;95236.63;5114405;28;20170;-58
2023/01/02 05:29:10;;;;;;;1999.90;999.90;;;;;;;4.56;100.00;95221.16;5114161;28;20164;-58
2023/01/02 05:31:35;;;;;;;1999.90;999.90;;;;;;;4.55;100.00;95225.00;5114292;28;20225;-58
2023/01/02 05:34:00;;;;;;;1999.90;999.90;;;;;;;4.51;100.00;95232.31;5113797;28;20208;-58
2023/01/02 05:36:26;;;;;;;1999.90;999.90;;;;;;;4.53;100.00;95211.84;5114032;28;20169;-61
2023/01/02 05:38:52;;;;;;;1999.90;999.90;;;;;;;4.53;100.00;95211.06;5113877;28;20229;-62
2023/01/02 05:41:19;;;;;;;1999.90;999.90;;;;;;;4.56;100.00;95213.03;5114133;28;20180;-60
2023/01/02 05:43:44;;;;;;;1999.90;999.90;;;;;;;4.54;100.00;95218.03;5114694;28;20176;-60
2023/01/02 05:46:19;;;;;;;1999.90;999.90;;;;;;;4.48;100.00;95214.09;5113742;28;20185;-60
2023/01/02 05:48:45;;;;;;;1999.90;999.90;;;;;;;4.46;100.00;95219.09;5113717;28;20188;-60
2023/01/02 05:51:14;;;;;;;1999.90;999.90;;;;;;;4.41;100.00;95208.63;5113971;28;20175;-60
2023/01/02 05:53:40;;;;;;;1999.90;999.90;;;;;;;4.41;100.00;95192.41;5114135;28;20252;-60
2023/01/02 05:56:11;;;;;;;1999.90;999.90;;;;;;;4.40;100.00;95190.84;5114463;28;20317;-67
2023/01/02 05:58:39;;;;;;;1999.90;999.90;;;;;;;4.38;100.00;95193.13;5113523;28;20164;-75
2023/01/02 06:01:16;;;;;;;1999.90;999.90;;;;;;;4.46;100.00;95173.94;5114025;28;20258;-74
2023/01/02 06:03:53;;;;;;;1999.90;999.90;;;;;;;4.59;100.00;95177.16;5114317;28;20162;-75
2023/01/02 06:06:22;;;;;;;1999.90;999.90;;;;;;;4.66;100.00;95183.41;5113927;28;20171;-74
2023/01/02 06:08:47;;;;;;;1999.90;999.90;;;;;;;4.74;100.00;95205.91;5113356;28;20502;-74
2023/01/02 06:11:13;;;;;;;1999.90;999.90;;;;;;;4.68;100.00;95218.19;5114441;28;20183;-74
2023/01/02 06:13:39;;;;;;;1999.90;999.90;;;;;;;4.60;100.00;95225.47;5113671;28;20225;-72
2023/01/02 06:16:06;;;;;;;1999.90;999.90;;;;;;;4.54;100.00;95242.34;5113593;28;20183;-60
2023/01/02 06:18:33;;;;;;;1999.90;999.90;;;;;;;4.54;100.00;95250.47;5113667;28;20221;-59
2023/01/02 06:21:04;;;;;;;1999.90;999.90;;;;;;;4.48;100.00;95257.34;5114273;28;20207;-59
2023/01/02 06:23:29;;;;;;;1999.90;999.90;;;;;;;4.52;100.00;95241.97;5113336;28;20168;-60
2023/01/02 06:25:55;;;;;;;1999.90;999.90;;;;;;;4.67;100.00;95235.56;5114119;28;20263;-60
2023/01/02 06:28:21;;;;;;;1999.90;999.90;;;;;;;4.68;100.00;95242.53;5114119;28;20219;-59
2023/01/02 06:30:46;;;;;;;1999.90;999.90;;;;;;;4.70;100.00;95232.13;5113433;28;20187;-61
2023/01/02 06:33:11;;;;;;;1999.90;999.90;;;;;;;4.78;100.00;95228.34;5113411;28;20617;-60
2023/01/02 06:35:37;;;;;;;1999.90;999.90;;;;;;;4.98;100.00;95237.81;5113296;28;20309;-72
2023/01/02 06:38:02;;;;;;;1999.90;999.90;;;;;;;4.98;100.00;95248.66;5113627;28;20217;-74
2023/01/02 06:40:28;;;;;;;1999.90;999.90;;;;;;;4.85;100.00;95250.06;5113560;28;20176;-73
2023/01/02 06:42:53;;;;;;;1999.90;999.90;;;;;;;4.89;100.00;95250.88;5113517;28;20178;-72
2023/01/02 06:45:18;;;;;;;1999.90;999.90;;;;;;;4.92;100.00;95261.72;5113454;28;20176;-74
2023/01/02 06:47:44;;;;;;;1999.90;999.90;;;;;;;4.94;100.00;95255.94;5116220;28;20284;-73
2023/01/02 06:50:09;;;;;;;1999.90;999.90;;;;;;;4.91;100.00;95271.00;5117159;28;20172;-65
2023/01/02 06:52:35;;;;;;;1999.90;999.90;;;;;;;4.87;100.00;95289.13;5117473;28;20172;-69
2023/01/02 06:55:00;;;;;;;1999.90;999.90;;;;;;;4.83;100.00;95284.81;5117148;28;20181;-58
2023/01/02 06:57:28;;;;;;;1999.90;999.90;;;;;;;4.86;100.00;95270.56;5117577;28;20211;-57
2023/01/02 06:59:54;;;;;;;1999.90;999.90;;;;;;;4.88;100.00;95270.97;5116841;28;20188;-60
2023/01/02 07:02:19;;;;;;;1999.90;999.90;;;;;;;4.87;100.00;95270.19;5117284;28;20167;-58
2023/01/02 07:04:44;;;;;;;1999.90;999.90;;;;;;;4.89;100.00;95277.94;5116725;28;20245;-58
2023/01/02 07:07:10;;;;;;;1999.90;999.90;;;;;;;4.85;100.00;95277.88;5117081;28;20210;-58
2023/01/02 07:09:35;;;;;;;1999.90;999.90;;;;;;;4.84;100.00;95281.75;5116474;28;20179;-62
2023/01/02 07:12:00;;;;;;;1999.90;999.90;;;;;;;4.84;100.00;95275.56;5116909;28;20208;-63
2023/01/02 07:14:26;;;;;;;1999.90;999.90;;;;;;;4.92;100.00;95279.91;5117652;27;20213;-63
2023/01/02 07:16:51;;;;;;;1999.90;999.90;;;;;;;5.08;100.00;95269.63;5116509;28;20279;-64
2023/01/02 07:19:17;;;;;;;1999.90;999.90;;;;;;;5.47;100.00;95259.97;5116907;28;20177;-62
2023/01/02 07:21:42;;;;;;;1999.90;999.90;;;;;;;5.62;100.00;95275.19;5116321;28;20176;-63
2023/01/02 07:24:12;;;;;;;1999.90;999.90;;;;;;;5.65;100.00;95312.38;5116612;28;20189;-65
2023/01/02 07:26:37;;;;;;;1999.90;999.90;;;;;;;5.66;100.00;95338.28;5116381;28;20178;-63
2023/01/02 07:29:03;;;;;;;1999.90;999.90;;;;;;;5.86;100.00;95350.47;5116623;28;20215;-60
2023/01/02 07:31:28;;;;;;;1999.90;999.90;;;;;;;6.33;100.00;95367.53;5116136;28;20224;-68
2023/01/02 07:33:54;;;;;;;1999.90;999.90;;;;;;;7.20;100.00;95398.28;5117658;28;20174;-66
2023/01/02 07:36:21;;;;;;;1999.90;999.90;;;;;;;8.01;100.00;95440.88;5117283;28;20194;-69
2023/01/02 07:38:54;;;;;;;1999.90;999.90;;;;;;;8.47;100.00;95506.28;5116705;28;20171;-69
2023/01/02 07:41:23;;;;;;;1999.90;999.90;;;;;;;8.95;100.00;95560.00;5116246;28;20172;-67
2023/01/02 07:43:48;;;;;;;1999.90;999.90;;;;;;;9.09;100.00;95589.19;5116653;28;20206;-66
2023/01/02 07:46:17;;;;;;;1999.90;999.90;;;;;;;9.57;100.00;95604.75;5116277;28;20168;-64
2023/01/02 07:48:42;;;;;;;1999.90;999.90;;;;;;;9.80;100.00;95615.25;5116518;28;20261;-60
2023/01/02 07:51:08;;;;;;;1999.90;999.90;;;;;;;9.68;100.00;95621.09;5116450;28;20177;-61
2023/01/02 07:53:34;;;;;;;1999.90;999.90;;;;;;;10.04;100.00;95617.94;5116449;28;20175;-62
2023/01/02 07:56:01;;;;;;;1999.90;999.90;;;;;;;10.43;100.00;95627.97;5116831;28;20179;-61
2023/01/02 07:58:27;;;;;;;1999.90;999.90;;;;;;;10.69;100.00;95624.72;5115196;28;20240;-61
2023/01/02 08:00:53;;;;;;;1999.90;999.90;;;;;;;10.65;100.00;95629.44;5115503;28;20261;-61
2023/01/02 08:03:19;;;;;;;1999.90;999.90;;;;;;;10.68;100.00;95623.97;5115498;28;20180;-61
2023/01/02 08:05:45;;;;;;;1999.90;999.90;;;;;;;10.37;100.00;95626.84;5115404;28;20195;-60
2023/01/02 08:08:10;;;;;;;1999.90;999.90;;;;;;;10.46;100.00;95627.19;5115430;28;20286;-68
2023/01/02 08:10:36;;;;;;;1999.90;999.90;;;;;;;11.13;100.00;95617.44;5115484;28;20180;-68
2023/01/02 08:13:03;;;;;;;1999.90;999.90;;;;;;;11.44;100.00;95626.59;5115347;28;20219;-66
2023/01/02 08:15:28;;;;;;;1999.90;999.90;;;;;;;11.94;100.00;95628.53;5115210;28;20180;-66
2023/01/02 08:17:55;;;;;;;1999.90;999.90;;;;;;;12.10;100.00;95638.94;5115929;28;20218;-67
2023/01/02 08:20:21;;;;;;;1999.90;999.90;;;;;;;12.16;100.00;95634.53;5115290;28;20172;-67
2023/01/02 08:22:46;;;;;;;1999.90;999.90;;;;;;;12.60;100.00;95637.19;5115377;27;20536;-61
2023/01/02 08:25:11;;;;;;;1999.90;999.90;;;;;;;12.67;100.00;95637.88;5115258;28;20254;-61
2023/01/02 08:27:36;;;;;;;1999.90;999.90;;;;;;;12.83;100.00;95634.56;5115035;28;20381;-68
2023/01/02 08:30:02;;;;;;;1999.90;999.90;;;;;;;12.83;100.00;95651.00;5115079;28;20267;-67
2023/01/02 08:32:28;;;;;;;1999.90;999.90;;;;;;;12.68;100.00;95649.63;5115074;28;20264;-67
2023/01/02 08:34:53;;;;;;;1999.90;999.90;;;;;;;13.56;100.00;95649.22;5115111;28;20167;-68
2023/01/02 08:37:19;;;;;;;1999.90;999.90;;;;;;;14.19;100.00;95652.84;5115556;28;20183;-68
2023/01/02 08:39:44;;;;;;;1999.90;999.90;;;;;;;13.81;100.00;95648.81;5114601;28;20180;-67
2023/01/02 08:42:09;;;;;;;1999.90;999.90;;;;;;;14.18;100.00;95657.56;5114752;28;20171;-62
2023/01/02 08:44:36;;;;;;;1999.90;999.90;;;;;;;14.22;100.00;95661.06;5114984;28;20270;-68
2023/01/02 08:47:03;;;;;;;1999.90;999.90;;;;;;;14.10;100.00;95661.66;5114640;28;20183;-67
2023/01/02 08:49:28;;;;;;;1999.90;999.90;;;;;;;14.27;100.00;95671.56;5114826;28;20179;-67
2023/01/02 08:51:54;;;;;;;1999.90;999.90;;;;;;;14.28;100.00;95667.59;5115375;28;20186;-67
2023/01/02 08:54:19;;;;;;;1999.90;999.90;;;;;;;14.61;100.00;95679.56;5114692;28;20178;-67
2023/01/02 08:56:44;;;;;;;1999.90;999.90;;;;;;;14.64;100.00;95685.00;5115318;28;20214;-67
2023/01/02 08:59:11;;;;;;;1999.90;999.90;;;;;;;15.04;100.00;95686.53;5114424;28;20202;-61
2023/01/02 09:01:37;;;;;;;1999.90;999.90;;;;;;;15.28;100.00;95685.25;5114602;28;20179;-61
2023/01/02 09:04:04;;;;;;;1999.90;999.90;;;;;;;15.53;100.00;95674.50;5115082;28;20198;-62
2023/01/02 09:06:31;;;;;;;1999.90;999.90;;;;;;;15.14;100.00;95679.25;5114366;28;20222;-63
2023/01/02 09:08:58;;;;;;;1999.90;999.90;;;;;;;15.26;100.00;95687.66;5114754;28;20249;-62
2023/01/02 09:11:26;;;;;;;1999.90;999.90;;;;;;;15.68;100.00;95681.25;5114550;28;20199;-63
2023/01/02 09:13:52;;;;;;;1999.90;999.90;;;;;;;15.65;100.00;95681.31;5114342;28;20220;-62
2023/01/02 09:16:18;;;;;;;1999.90;999.90;;;;;;;15.41;100.00;95675.16;5114491;28;20267;-63
2023/01/02 09:18:43;;;;;;;1999.90;999.90;;;;;;;15.45;100.00;95681.34;5114060;28;20288;-68
2023/01/02 09:21:08;;;;;;;1999.90;999.90;;;;;;;15.17;100.00;95689.44;5114149;28;20172;-60
2023/01/02 09:23:34;;;;;;;1999.90;999.90;;;;;;;15.36;100.00;95686.69;5114228;28;20202;-61
2023/01/02 09:26:03;;;;;;;1999.90;999.90;;;;;;;15.43;100.00;95686.53;5114758;28;20199;-60
2023/01/02 09:28:31;;;;;;;1999.90;999.90;;;;;;;15.62;100.00;95685.69;5114640;28;20226;-61
2023/01/02 09:30:58;;;;;;;1999.90;999.90;;;;;;;15.83;100.00;95687.97;5114665;28;20266;-61
2023/01/02 09:33:24;;;;;;;1999.90;999.90;;;;;;;16.15;100.00;95682.44;5114121;28;20172;-61
2023/01/02 09:35:49;;;;;;;1999.90;999.90;;;;;;;15.84;100.00;95686.75;5114694;28;20210;-61
2023/01/02 09:38:15;;;;;;;1999.90;999.90;;;;;;;16.11;99.22;95684.50;5114195;28;20272;-68
2023/01/02 09:40:47;;;;;;;1999.90;999.90;;;;;;;16.23;97.24;95683.81;5113705;28;20204;-61
2023/01/02 09:43:16;;;;;;;1999.90;999.90;;;;;;;16.49;94.86;95678.47;5114291;28;20172;-61
2023/01/02 09:45:43;;;;;;;1999.90;999.90;;;;;;;16.84;92.43;95677.50;5114445;28;20182;-62
2023/01/02 09:48:15;;;;;;;1999.90;999.90;;;;;;;17.17;89.97;95674.19;5113972;28;20199;-61
2023/01/02 09:50:41;;;;;;;1999.90;999.90;;;;;;;17.54;85.60;95672.69;5114480;28;20171;-61
2023/01/02 09:53:10;;;;;;;1999.90;999.90;;;;;;;17.51;85.46;95676.34;5113724;28;20179;-62
2023/01/02 09:55:45;;;;;;;1999.90;999.90;;;;;;;17.52;84.76;95677.91;5114992;28;20183;-70
2023/01/02 09:58:28;;;;;;;1999.90;999.90;;;;;;;18.03;87.23;95673.91;5114349;28;20180;-64
2023/01/02 10:00:54;;;;;;;1999.90;999.90;;;;;;;18.27;82.11;95672.31;5114340;28;20172;-63
2023/01/02 10:03:39;;;;;;;1999.90;999.90;;;;;;;18.54;79.42;95676.13;5113806;28;20180;-63
2023/01/02 10:06:16;;;;;;;1999.90;999.90;;;;;;;18.42;77.83;95681.72;5114160;28;20176;-63
2023/01/02 10:09:06;;;;;;;1999.90;999.90;;;;;;;18.78;74.98;95698.63;5114236;28;20202;-62
2023/01/02 10:11:55;;;;;;;1999.90;999.90;;;;;;;18.60;77.67;95695.72;5113768;28;20179;-62
2023/01/02 10:14:32;;;;;;;1999.90;999.90;;;;;;;18.94;77.34;95688.16;5113278;28;20223;-65
2023/01/02 10:17:00;;;;;;;1999.90;999.90;;;;;;;19.01;73.50;95679.59;5113736;28;20251;-67
2023/01/02 10:19:42;;;;;;;1999.90;999.90;;;;;;;18.65;74.93;95673.03;5113529;28;20187;-68
2023/01/02 10:22:12;;;;;;;1999.90;999.90;;;;;;;18.95;73.68;95680.63;5117203;28;20176;-68
2023/01/02 10:24:44;;;;;;;1999.90;999.90;;;;;;;19.00;72.94;95675.28;5117528;28;20353;-68
2023/01/02 10:27:26;;;;;;;1999.90;999.90;;;;;;;19.16;71.85;95677.88;5118097;28;20164;-70
2023/01/02 10:30:19;;;;;;;1999.90;999.90;;;;;;;18.60;73.69;95668.03;5117851;28;20187;-69
2023/01/02 10:32:52;;;;;;;1999.90;999.90;;;;;;;19.19;71.96;95654.81;5111918;28;20180;-61
2023/01/02 10:35:40;;;;;;;1999.90;999.90;;;;;;;19.28;66.00;95651.34;5117910;28;20164;-62
2023/01/02 10:38:11;;;;;;;1999.90;999.90;;;;;;;19.15;65.85;95653.38;5117851;28;20172;-62
2023/01/02 10:40:39;;;;;;;1999.90;999.90;;;;;;;18.80;68.97;95657.47;5117312;28;20190;-62
2023/01/02 10:43:05;;;;;;;1999.90;999.90;;;;;;;18.65;69.17;95657.19;5117219;28;20235;-63
2023/01/02 10:45:32;;;;;;;1999.90;999.90;;;;;;;18.39;71.70;95658.50;5117195;28;20203;-63
2023/01/02 10:47:57;;;;;;;1999.90;999.90;;;;;;;18.14;74.56;95635.66;5117649;28;20203;-62
2023/01/02 10:50:28;;;;;;;1999.90;999.90;;;;;;;17.56;73.26;95628.84;5117702;28;20361;-62
2023/01/02 10:53:05;;;;;;;1999.90;999.90;;;;;;;17.20;75.67;95628.34;5116606;28;20168;-61
2023/01/02 10:55:32;;;;;;;1999.90;999.90;;;;;;;16.77;76.29;95630.81;5116883;28;20254;-61
2023/01/02 10:58:06;;;;;;;1999.90;999.90;;;;;;;16.93;78.22;95622.47;5116715;28;20190;-60
2023/01/02 11:00:35;;;;;;;1999.90;999.90;;;;;;;16.79;78.82;95620.13;5117575;28;20170;-62
2023/01/02 11:03:22;;;;;;;1999.90;999.90;;;;;;;16.85;80.11;95629.38;5116556;28;20221;-60
2023/01/02 11:05:53;;;;;;;1999.90;999.90;;;;;;;16.90;80.33;95617.81;5117358;28;20244;-61